sensor_id;sensor_type;location;lat;lon;timestamp;P1;durP1;ratioP1;P2;durP2;ratioP2
55647;SDS011;45266;48.756;9.246;2022-08-03T00:00:46;4.40;;;4.10;;
55647;SDS011;45266;48.756;9.246;2022-08-03T00:01:48;5.90;;;3.95;;
55647;SDS011;45266;48.756;9.246;2022-08-03T00:02:50;4.47;;;3.95;;
55647;SDS011;45266;48.756;9.246;2022-08-03T00:03:52;4.45;;;4.00;;
55647;SDS011;45266;48.756;9.246;2022-08-03T00:04:54;5.63;;;4.13;;
55647;SDS011;45266;48.756;9.246;2022-08-03T00:05:56;3.90;;;3.50;;
55647;SDS011;45266;48.756;9.246;2022-08-03T00:07:05;4.03;;;3.60;;
55647;SDS011;45266;48.756;9.246;2022-08-03T00:08:06;4.68;;;3.72;;
55647;SDS011;45266;48.756;9.246;2022-08-03T00:09:08;4.20;;;3.25;;
55647;SDS011;45266;48.756;9.246;2022-08-03T00:10:11;4.18;;;3.78;;
55647;SDS011;45266;48.756;9.246;2022-08-03T00:11:14;4.40;;;3.97;;
55647;SDS011;45266;48.756;9.246;2022-08-03T00:12:15;5.65;;;3.80;;
55647;SDS011;45266;48.756;9.246;2022-08-03T00:13:18;4.00;;;3.60;;
55647;SDS011;45266;48.756;9.246;2022-08-03T00:14:19;4.75;;;3.65;;
55647;SDS011;45266;48.756;9.246;2022-08-03T00:15:21;3.67;;;3.38;;
55647;SDS011;45266;48.756;9.246;2022-08-03T00:16:23;4.00;;;3.70;;
55647;SDS011;45266;48.756;9.246;2022-08-03T00:17:26;4.07;;;3.67;;
55647;SDS011;45266;48.756;9.246;2022-08-03T00:18:28;4.70;;;3.90;;
55647;SDS011;45266;48.756;9.246;2022-08-03T00:19:29;6.45;;;3.72;;
55647;SDS011;45266;48.756;9.246;2022-08-03T00:20:31;4.80;;;3.58;;
55647;SDS011;45266;48.756;9.246;2022-08-03T00:21:33;3.80;;;3.50;;
55647;SDS011;45266;48.756;9.246;2022-08-03T00:22:35;4.10;;;3.80;;
55647;SDS011;45266;48.756;9.246;2022-08-03T00:23:36;5.53;;;4.03;;
55647;SDS011;45266;48.756;9.246;2022-08-03T00:24:53;4.03;;;3.72;;
55647;SDS011;45266;48.756;9.246;2022-08-03T00:25:54;3.72;;;3.42;;
55647;SDS011;45266;48.756;9.246;2022-08-03T00:26:56;3.75;;;3.47;;
55647;SDS011;45266;48.756;9.246;2022-08-03T00:27:58;5.20;;;3.80;;
55647;SDS011;45266;48.756;9.246;2022-08-03T00:29:00;4.97;;;4.47;;
55647;SDS011;45266;48.756;9.246;2022-08-03T00:30:02;4.00;;;3.65;;
55647;SDS011;45266;48.756;9.246;2022-08-03T00:31:05;3.97;;;3.67;;
55647;SDS011;45266;48.756;9.246;2022-08-03T00:32:13;6.60;;;4.05;;
55647;SDS011;45266;48.756;9.246;2022-08-03T00:33:17;5.70;;;3.58;;
55647;SDS011;45266;48.756;9.246;2022-08-03T00:34:22;4.35;;;3.90;;
55647;SDS011;45266;48.756;9.246;2022-08-03T00:35:43;4.03;;;3.58;;
55647;SDS011;45266;48.756;9.246;2022-08-03T00:36:51;4.80;;;4.18;;
55647;SDS011;45266;48.756;9.246;2022-08-03T00:37:53;4.50;;;3.60;;
55647;SDS011;45266;48.756;9.246;2022-08-03T00:38:55;4.13;;;3.50;;
55647;SDS011;45266;48.756;9.246;2022-08-03T00:39:57;7.05;;;4.10;;
55647;SDS011;45266;48.756;9.246;2022-08-03T00:41:00;4.40;;;4.00;;
55647;SDS011;45266;48.756;9.246;2022-08-03T00:42:05;4.63;;;4.13;;
55647;SDS011;45266;48.756;9.246;2022-08-03T00:43:07;3.88;;;3.58;;
55647;SDS011;45266;48.756;9.246;2022-08-03T00:44:09;4.50;;;3.75;;
55647;SDS011;45266;48.756;9.246;2022-08-03T00:45:10;4.55;;;4.13;;
55647;SDS011;45266;48.756;9.246;2022-08-03T00:46:12;4.28;;;3.88;;
55647;SDS011;45266;48.756;9.246;2022-08-03T00:47:21;4.53;;;4.13;;
55647;SDS011;45266;48.756;9.246;2022-08-03T00:48:23;4.43;;;4.03;;
55647;SDS011;45266;48.756;9.246;2022-08-03T00:49:34;4.20;;;3.65;;
55647;SDS011;45266;48.756;9.246;2022-08-03T00:50:38;4.55;;;4.15;;
55647;SDS011;45266;48.756;9.246;2022-08-03T00:51:41;4.22;;;3.80;;
55647;SDS011;45266;48.756;9.246;2022-08-03T00:52:44;4.35;;;3.97;;
55647;SDS011;45266;48.756;9.246;2022-08-03T00:53:46;6.13;;;4.15;;
55647;SDS011;45266;48.756;9.246;2022-08-03T00:54:49;3.80;;;3.50;;
55647;SDS011;45266;48.756;9.246;2022-08-03T00:55:50;4.47;;;4.07;;
55647;SDS011;45266;48.756;9.246;2022-08-03T00:56:52;4.38;;;3.95;;
55647;SDS011;45266;48.756;9.246;2022-08-03T00:58:00;4.35;;;3.95;;
55647;SDS011;45266;48.756;9.246;2022-08-03T00:59:07;4.40;;;3.95;;
55647;SDS011;45266;48.756;9.246;2022-08-03T01:00:11;4.30;;;3.88;;
55647;SDS011;45266;48.756;9.246;2022-08-03T01:01:14;4.57;;;4.18;;
55647;SDS011;45266;48.756;9.246;2022-08-03T01:02:17;4.25;;;3.85;;
55647;SDS011;45266;48.756;9.246;2022-08-03T01:03:19;8.90;;;4.13;;
55647;SDS011;45266;48.756;9.246;2022-08-03T01:04:21;4.80;;;4.30;;
55647;SDS011;45266;48.756;9.246;2022-08-03T01:05:23;4.30;;;3.90;;
55647;SDS011;45266;48.756;9.246;2022-08-03T01:06:49;5.60;;;3.72;;
55647;SDS011;45266;48.756;9.246;2022-08-03T01:09:24;3.92;;;3.53;;
55647;SDS011;45266;48.756;9.246;2022-08-03T01:11:56;4.15;;;3.75;;
55647;SDS011;45266;48.756;9.246;2022-08-03T01:13:20;4.15;;;3.83;;
55647;SDS011;45266;48.756;9.246;2022-08-03T01:15:09;3.83;;;3.53;;
55647;SDS011;45266;48.756;9.246;2022-08-03T01:17:48;4.40;;;3.70;;
55647;SDS011;45266;48.756;9.246;2022-08-03T01:19:21;6.55;;;3.63;;
55647;SDS011;45266;48.756;9.246;2022-08-03T01:20:33;4.03;;;3.72;;
55647;SDS011;45266;48.756;9.246;2022-08-03T01:22:39;4.00;;;3.70;;
55647;SDS011;45266;48.756;9.246;2022-08-03T01:25:07;3.85;;;3.53;;
55647;SDS011;45266;48.756;9.246;2022-08-03T01:27:20;4.70;;;3.83;;
55647;SDS011;45266;48.756;9.246;2022-08-03T01:31:12;4.43;;;4.03;;
55647;SDS011;45266;48.756;9.246;2022-08-03T01:32:18;4.68;;;4.03;;
55647;SDS011;45266;48.756;9.246;2022-08-03T01:33:43;4.38;;;4.00;;
55647;SDS011;45266;48.756;9.246;2022-08-03T01:34:51;4.95;;;4.47;;
55647;SDS011;45266;48.756;9.246;2022-08-03T01:36:01;4.05;;;3.63;;
55647;SDS011;45266;48.756;9.246;2022-08-03T01:37:05;4.40;;;4.00;;
55647;SDS011;45266;48.756;9.246;2022-08-03T01:38:11;4.70;;;4.25;;
55647;SDS011;45266;48.756;9.246;2022-08-03T01:39:18;4.40;;;4.00;;
55647;SDS011;45266;48.756;9.246;2022-08-03T01:40:21;4.63;;;4.22;;
55647;SDS011;45266;48.756;9.246;2022-08-03T01:41:30;5.78;;;4.20;;
55647;SDS011;45266;48.756;9.246;2022-08-03T01:42:35;5.25;;;4.25;;
55647;SDS011;45266;48.756;9.246;2022-08-03T01:43:38;4.25;;;3.85;;
55647;SDS011;45266;48.756;9.246;2022-08-03T01:45:02;4.25;;;3.85;;
55647;SDS011;45266;48.756;9.246;2022-08-03T01:46:05;4.75;;;4.05;;
55647;SDS011;45266;48.756;9.246;2022-08-03T01:47:08;4.43;;;4.00;;
55647;SDS011;45266;48.756;9.246;2022-08-03T01:48:11;4.95;;;3.88;;
55647;SDS011;45266;48.756;9.246;2022-08-03T01:49:17;5.15;;;4.28;;
55647;SDS011;45266;48.756;9.246;2022-08-03T01:50:23;4.10;;;3.70;;
55647;SDS011;45266;48.756;9.246;2022-08-03T01:51:29;5.32;;;3.70;;
55647;SDS011;45266;48.756;9.246;2022-08-03T01:52:51;4.55;;;4.15;;
55647;SDS011;45266;48.756;9.246;2022-08-03T01:53:56;4.45;;;3.72;;
55647;SDS011;45266;48.756;9.246;2022-08-03T01:55:00;4.50;;;4.10;;
55647;SDS011;45266;48.756;9.246;2022-08-03T01:56:04;4.35;;;3.95;;
55647;SDS011;45266;48.756;9.246;2022-08-03T01:57:06;4.70;;;4.05;;
55647;SDS011;45266;48.756;9.246;2022-08-03T01:58:10;4.25;;;3.85;;
55647;SDS011;45266;48.756;9.246;2022-08-03T01:59:15;4.85;;;4.45;;
55647;SDS011;45266;48.756;9.246;2022-08-03T02:00:19;5.40;;;4.20;;
55647;SDS011;45266;48.756;9.246;2022-08-03T02:01:21;4.50;;;4.10;;
55647;SDS011;45266;48.756;9.246;2022-08-03T02:02:24;4.72;;;4.05;;
55647;SDS011;45266;48.756;9.246;2022-08-03T02:03:38;4.32;;;3.92;;
55647;SDS011;45266;48.756;9.246;2022-08-03T02:05:02;5.10;;;3.83;;
55647;SDS011;45266;48.756;9.246;2022-08-03T02:06:11;4.60;;;4.00;;
55647;SDS011;45266;48.756;9.246;2022-08-03T02:07:34;4.95;;;4.18;;
55647;SDS011;45266;48.756;9.246;2022-08-03T02:08:38;4.38;;;3.85;;
55647;SDS011;45266;48.756;9.246;2022-08-03T02:09:40;4.47;;;3.88;;
55647;SDS011;45266;48.756;9.246;2022-08-03T02:10:45;5.30;;;4.18;;
55647;SDS011;45266;48.756;9.246;2022-08-03T02:11:48;4.00;;;3.70;;
55647;SDS011;45266;48.756;9.246;2022-08-03T02:12:52;4.65;;;3.90;;
55647;SDS011;45266;48.756;9.246;2022-08-03T02:13:54;4.30;;;3.90;;
55647;SDS011;45266;48.756;9.246;2022-08-03T02:15:00;4.07;;;3.78;;
55647;SDS011;45266;48.756;9.246;2022-08-03T02:16:04;6.13;;;4.78;;
55647;SDS011;45266;48.756;9.246;2022-08-03T02:17:07;5.30;;;4.50;;
55647;SDS011;45266;48.756;9.246;2022-08-03T02:18:10;4.50;;;4.10;;
55647;SDS011;45266;48.756;9.246;2022-08-03T02:19:13;4.60;;;4.20;;
55647;SDS011;45266;48.756;9.246;2022-08-03T02:20:18;4.75;;;4.35;;
55647;SDS011;45266;48.756;9.246;2022-08-03T02:21:20;4.30;;;4.00;;
55647;SDS011;45266;48.756;9.246;2022-08-03T02:22:43;4.50;;;4.18;;
55647;SDS011;45266;48.756;9.246;2022-08-03T02:23:45;4.28;;;3.88;;
55647;SDS011;45266;48.756;9.246;2022-08-03T02:24:48;4.80;;;4.20;;
55647;SDS011;45266;48.756;9.246;2022-08-03T02:25:58;5.30;;;4.55;;
55647;SDS011;45266;48.756;9.246;2022-08-03T02:27:04;4.53;;;4.13;;
55647;SDS011;45266;48.756;9.246;2022-08-03T02:28:11;4.40;;;4.00;;
55647;SDS011;45266;48.756;9.246;2022-08-03T02:29:19;5.45;;;4.80;;
55647;SDS011;45266;48.756;9.246;2022-08-03T02:30:41;4.95;;;4.40;;
55647;SDS011;45266;48.756;9.246;2022-08-03T02:31:52;5.72;;;4.90;;
55647;SDS011;45266;48.756;9.246;2022-08-03T02:32:58;5.38;;;4.32;;
55647;SDS011;45266;48.756;9.246;2022-08-03T02:34:02;4.72;;;4.32;;
55647;SDS011;45266;48.756;9.246;2022-08-03T02:35:10;4.50;;;4.10;;
55647;SDS011;45266;48.756;9.246;2022-08-03T02:36:13;4.97;;;4.57;;
55647;SDS011;45266;48.756;9.246;2022-08-03T02:37:18;6.45;;;4.28;;
55647;SDS011;45266;48.756;9.246;2022-08-03T02:38:25;4.75;;;4.30;;
55647;SDS011;45266;48.756;9.246;2022-08-03T02:39:31;5.30;;;4.30;;
55647;SDS011;45266;48.756;9.246;2022-08-03T02:40:35;4.72;;;3.90;;
55647;SDS011;45266;48.756;9.246;2022-08-03T02:41:42;4.10;;;3.72;;
55647;SDS011;45266;48.756;9.246;2022-08-03T02:42:48;4.32;;;3.92;;
55647;SDS011;45266;48.756;9.246;2022-08-03T02:43:53;4.60;;;4.20;;
55647;SDS011;45266;48.756;9.246;2022-08-03T02:45:08;5.78;;;4.18;;
55647;SDS011;45266;48.756;9.246;2022-08-03T02:46:16;5.18;;;4.28;;
55647;SDS011;45266;48.756;9.246;2022-08-03T02:47:20;5.38;;;4.32;;
55647;SDS011;45266;48.756;9.246;2022-08-03T02:48:24;5.32;;;4.20;;
55647;SDS011;45266;48.756;9.246;2022-08-03T02:49:29;4.95;;;4.55;;
55647;SDS011;45266;48.756;9.246;2022-08-03T02:50:52;4.25;;;3.95;;
55647;SDS011;45266;48.756;9.246;2022-08-03T02:51:55;4.32;;;3.92;;
55647;SDS011;45266;48.756;9.246;2022-08-03T02:53:00;4.72;;;4.22;;
55647;SDS011;45266;48.756;9.246;2022-08-03T02:54:03;4.32;;;3.92;;
55647;SDS011;45266;48.756;9.246;2022-08-03T02:55:06;5.10;;;4.30;;
55647;SDS011;45266;48.756;9.246;2022-08-03T02:56:10;4.32;;;3.90;;
55647;SDS011;45266;48.756;9.246;2022-08-03T02:57:14;4.88;;;4.35;;
55647;SDS011;45266;48.756;9.246;2022-08-03T02:58:20;4.28;;;3.88;;
55647;SDS011;45266;48.756;9.246;2022-08-03T02:59:24;4.15;;;3.85;;
55647;SDS011;45266;48.756;9.246;2022-08-03T03:00:30;4.38;;;4.00;;
55647;SDS011;45266;48.756;9.246;2022-08-03T03:01:33;5.03;;;4.15;;
55647;SDS011;45266;48.756;9.246;2022-08-03T03:02:35;4.22;;;3.88;;
55647;SDS011;45266;48.756;9.246;2022-08-03T03:03:43;5.70;;;4.70;;
55647;SDS011;45266;48.756;9.246;2022-08-03T03:04:49;5.18;;;4.47;;
55647;SDS011;45266;48.756;9.246;2022-08-03T03:06:12;4.85;;;4.20;;
55647;SDS011;45266;48.756;9.246;2022-08-03T03:07:19;4.70;;;4.30;;
55647;SDS011;45266;48.756;9.246;2022-08-03T03:08:21;4.57;;;4.18;;
55647;SDS011;45266;48.756;9.246;2022-08-03T03:09:29;6.00;;;4.20;;
55647;SDS011;45266;48.756;9.246;2022-08-03T03:10:42;5.43;;;4.78;;
55647;SDS011;45266;48.756;9.246;2022-08-03T03:11:44;4.50;;;4.10;;
55647;SDS011;45266;48.756;9.246;2022-08-03T03:12:47;4.63;;;4.22;;
55647;SDS011;45266;48.756;9.246;2022-08-03T03:13:57;4.53;;;4.13;;
55647;SDS011;45266;48.756;9.246;2022-08-03T03:15:01;4.68;;;4.20;;
55647;SDS011;45266;48.756;9.246;2022-08-03T03:16:03;4.35;;;4.05;;
55647;SDS011;45266;48.756;9.246;2022-08-03T03:17:08;4.38;;;3.95;;
55647;SDS011;45266;48.756;9.246;2022-08-03T03:18:11;4.47;;;3.83;;
55647;SDS011;45266;48.756;9.246;2022-08-03T03:19:19;4.70;;;4.30;;
55647;SDS011;45266;48.756;9.246;2022-08-03T03:20:30;5.38;;;4.07;;
55647;SDS011;45266;48.756;9.246;2022-08-03T03:21:35;5.00;;;4.20;;
55647;SDS011;45266;48.756;9.246;2022-08-03T03:22:38;4.85;;;4.05;;
55647;SDS011;45266;48.756;9.246;2022-08-03T03:23:45;4.97;;;4.57;;
55647;SDS011;45266;48.756;9.246;2022-08-03T03:24:47;4.75;;;4.05;;
55647;SDS011;45266;48.756;9.246;2022-08-03T03:25:51;4.63;;;4.22;;
55647;SDS011;45266;48.756;9.246;2022-08-03T03:26:56;7.00;;;4.88;;
55647;SDS011;45266;48.756;9.246;2022-08-03T03:27:58;4.55;;;4.15;;
55647;SDS011;45266;48.756;9.246;2022-08-03T03:29:02;4.45;;;4.15;;
55647;SDS011;45266;48.756;9.246;2022-08-03T03:30:04;4.75;;;4.30;;
55647;SDS011;45266;48.756;9.246;2022-08-03T03:31:06;4.68;;;4.28;;
55647;SDS011;45266;48.756;9.246;2022-08-03T03:32:09;4.40;;;4.00;;
55647;SDS011;45266;48.756;9.246;2022-08-03T03:33:11;5.35;;;4.35;;
55647;SDS011;45266;48.756;9.246;2022-08-03T03:34:13;4.80;;;4.40;;
55647;SDS011;45266;48.756;9.246;2022-08-03T03:35:16;4.43;;;4.03;;
55647;SDS011;45266;48.756;9.246;2022-08-03T03:36:18;4.50;;;4.10;;
55647;SDS011;45266;48.756;9.246;2022-08-03T03:37:20;6.03;;;4.40;;
55647;SDS011;45266;48.756;9.246;2022-08-03T03:38:22;4.57;;;4.18;;
55647;SDS011;45266;48.756;9.246;2022-08-03T03:39:24;5.28;;;4.20;;
55647;SDS011;45266;48.756;9.246;2022-08-03T03:40:25;4.75;;;4.30;;
55647;SDS011;45266;48.756;9.246;2022-08-03T03:41:28;5.13;;;4.68;;
55647;SDS011;45266;48.756;9.246;2022-08-03T03:42:34;5.18;;;4.70;;
55647;SDS011;45266;48.756;9.246;2022-08-03T03:43:36;5.20;;;4.70;;
55647;SDS011;45266;48.756;9.246;2022-08-03T03:44:37;4.53;;;4.13;;
55647;SDS011;45266;48.756;9.246;2022-08-03T03:45:40;5.93;;;4.50;;
55647;SDS011;45266;48.756;9.246;2022-08-03T03:46:44;4.65;;;4.25;;
55647;SDS011;45266;48.756;9.246;2022-08-03T03:47:46;5.10;;;4.50;;
55647;SDS011;45266;48.756;9.246;2022-08-03T03:48:48;5.97;;;5.03;;
55647;SDS011;45266;48.756;9.246;2022-08-03T03:49:50;5.03;;;4.47;;
55647;SDS011;45266;48.756;9.246;2022-08-03T03:50:52;5.07;;;4.57;;
55647;SDS011;45266;48.756;9.246;2022-08-03T03:51:55;5.20;;;4.70;;
55647;SDS011;45266;48.756;9.246;2022-08-03T03:52:57;5.10;;;4.40;;
55647;SDS011;45266;48.756;9.246;2022-08-03T03:54:00;5.43;;;4.93;;
55647;SDS011;45266;48.756;9.246;2022-08-03T03:55:04;6.13;;;4.30;;
55647;SDS011;45266;48.756;9.246;2022-08-03T03:56:07;5.00;;;4.60;;
55647;SDS011;45266;48.756;9.246;2022-08-03T03:57:12;5.00;;;4.30;;
55647;SDS011;45266;48.756;9.246;2022-08-03T03:58:13;6.20;;;4.78;;
55647;SDS011;45266;48.756;9.246;2022-08-03T03:59:15;6.03;;;4.75;;
55647;SDS011;45266;48.756;9.246;2022-08-03T04:00:17;5.40;;;4.72;;
55647;SDS011;45266;48.756;9.246;2022-08-03T04:01:19;5.00;;;4.45;;
55647;SDS011;45266;48.756;9.246;2022-08-03T04:02:21;4.95;;;4.47;;
55647;SDS011;45266;48.756;9.246;2022-08-03T04:03:23;5.25;;;4.75;;
55647;SDS011;45266;48.756;9.246;2022-08-03T04:04:25;4.75;;;4.35;;
55647;SDS011;45266;48.756;9.246;2022-08-03T04:05:45;5.70;;;4.50;;
55647;SDS011;45266;48.756;9.246;2022-08-03T04:07:06;4.78;;;4.15;;
55647;SDS011;45266;48.756;9.246;2022-08-03T04:08:27;5.70;;;5.20;;
55647;SDS011;45266;48.756;9.246;2022-08-03T04:09:49;5.32;;;4.82;;
55647;SDS011;45266;48.756;9.246;2022-08-03T04:12:32;5.15;;;4.65;;
55647;SDS011;45266;48.756;9.246;2022-08-03T04:13:43;6.00;;;5.40;;
55647;SDS011;45266;48.756;9.246;2022-08-03T04:14:52;5.25;;;4.60;;
55647;SDS011;45266;48.756;9.246;2022-08-03T04:15:57;4.80;;;4.38;;
55647;SDS011;45266;48.756;9.246;2022-08-03T04:17:02;5.40;;;4.93;;
55647;SDS011;45266;48.756;9.246;2022-08-03T04:18:06;5.72;;;4.57;;
55647;SDS011;45266;48.756;9.246;2022-08-03T04:19:31;5.45;;;4.95;;
55647;SDS011;45266;48.756;9.246;2022-08-03T04:20:38;5.53;;;5.03;;
55647;SDS011;45266;48.756;9.246;2022-08-03T04:21:48;5.10;;;4.70;;
55647;SDS011;45266;48.756;9.246;2022-08-03T04:22:53;5.40;;;4.95;;
55647;SDS011;45266;48.756;9.246;2022-08-03T04:23:58;5.15;;;4.70;;
55647;SDS011;45266;48.756;9.246;2022-08-03T04:25:04;5.30;;;4.80;;
55647;SDS011;45266;48.756;9.246;2022-08-03T04:26:11;5.57;;;5.03;;
55647;SDS011;45266;48.756;9.246;2022-08-03T04:27:15;6.50;;;4.78;;
55647;SDS011;45266;48.756;9.246;2022-08-03T04:28:22;6.07;;;5.15;;
55647;SDS011;45266;48.756;9.246;2022-08-03T04:29:32;5.53;;;4.80;;
55647;SDS011;45266;48.756;9.246;2022-08-03T04:30:45;5.45;;;4.95;;
55647;SDS011;45266;48.756;9.246;2022-08-03T04:31:50;5.53;;;4.70;;
55647;SDS011;45266;48.756;9.246;2022-08-03T04:32:56;4.85;;;4.38;;
55647;SDS011;45266;48.756;9.246;2022-08-03T04:33:58;5.13;;;4.63;;
55647;SDS011;45266;48.756;9.246;2022-08-03T04:35:01;5.03;;;4.55;;
55647;SDS011;45266;48.756;9.246;2022-08-03T04:36:06;5.18;;;4.55;;
55647;SDS011;45266;48.756;9.246;2022-08-03T04:37:10;5.78;;;4.88;;
55647;SDS011;45266;48.756;9.246;2022-08-03T04:38:15;4.72;;;4.32;;
55647;SDS011;45266;48.756;9.246;2022-08-03T04:39:22;5.07;;;4.60;;
55647;SDS011;45266;48.756;9.246;2022-08-03T04:40:34;8.05;;;4.97;;
55647;SDS011;45266;48.756;9.246;2022-08-03T04:41:40;5.38;;;4.90;;
55647;SDS011;45266;48.756;9.246;2022-08-03T04:43:04;4.82;;;4.43;;
55647;SDS011;45266;48.756;9.246;2022-08-03T04:44:08;5.43;;;4.90;;
55647;SDS011;45266;48.756;9.246;2022-08-03T04:45:14;6.30;;;5.20;;
55647;SDS011;45266;48.756;9.246;2022-08-03T04:46:17;6.05;;;5.25;;
55647;SDS011;45266;48.756;9.246;2022-08-03T04:47:22;6.10;;;5.50;;
55647;SDS011;45266;48.756;9.246;2022-08-03T04:48:24;5.57;;;5.07;;
55647;SDS011;45266;48.756;9.246;2022-08-03T04:49:27;5.20;;;4.78;;
55647;SDS011;45266;48.756;9.246;2022-08-03T04:50:30;6.28;;;5.63;;
55647;SDS011;45266;48.756;9.246;2022-08-03T04:51:32;5.43;;;4.80;;
55647;SDS011;45266;48.756;9.246;2022-08-03T04:52:35;5.75;;;4.95;;
55647;SDS011;45266;48.756;9.246;2022-08-03T04:53:36;5.30;;;4.82;;
55647;SDS011;45266;48.756;9.246;2022-08-03T04:54:42;5.68;;;5.18;;
55647;SDS011;45266;48.756;9.246;2022-08-03T04:55:51;5.15;;;4.65;;
55647;SDS011;45266;48.756;9.246;2022-08-03T04:56:52;5.65;;;5.15;;
55647;SDS011;45266;48.756;9.246;2022-08-03T04:57:55;5.47;;;4.97;;
55647;SDS011;45266;48.756;9.246;2022-08-03T04:58:57;5.30;;;4.90;;
55647;SDS011;45266;48.756;9.246;2022-08-03T04:59:59;5.53;;;5.03;;
55647;SDS011;45266;48.756;9.246;2022-08-03T05:01:03;5.03;;;4.63;;
55647;SDS011;45266;48.756;9.246;2022-08-03T05:02:06;4.82;;;4.32;;
55647;SDS011;45266;48.756;9.246;2022-08-03T05:03:07;5.13;;;4.63;;
55647;SDS011;45266;48.756;9.246;2022-08-03T05:04:24;5.10;;;4.65;;
55647;SDS011;45266;48.756;9.246;2022-08-03T05:05:26;5.32;;;4.85;;
55647;SDS011;45266;48.756;9.246;2022-08-03T05:06:48;5.57;;;4.75;;
55647;SDS011;45266;48.756;9.246;2022-08-03T05:07:55;6.25;;;5.65;;
55647;SDS011;45266;48.756;9.246;2022-08-03T05:08:57;5.95;;;4.88;;
55647;SDS011;45266;48.756;9.246;2022-08-03T05:09:59;8.18;;;4.88;;
55647;SDS011;45266;48.756;9.246;2022-08-03T05:11:03;5.90;;;4.50;;
55647;SDS011;45266;48.756;9.246;2022-08-03T05:12:06;4.90;;;4.47;;
55647;SDS011;45266;48.756;9.246;2022-08-03T05:13:08;5.55;;;5.05;;
55647;SDS011;45266;48.756;9.246;2022-08-03T05:14:13;5.18;;;4.68;;
55647;SDS011;45266;48.756;9.246;2022-08-03T05:15:14;5.90;;;4.97;;
55647;SDS011;45266;48.756;9.246;2022-08-03T05:16:16;5.55;;;5.05;;
55647;SDS011;45266;48.756;9.246;2022-08-03T05:17:18;5.18;;;4.70;;
55647;SDS011;45266;48.756;9.246;2022-08-03T05:18:20;5.82;;;5.22;;
55647;SDS011;45266;48.756;9.246;2022-08-03T05:19:22;5.22;;;4.72;;
55647;SDS011;45266;48.756;9.246;2022-08-03T05:20:24;6.00;;;4.90;;
55647;SDS011;45266;48.756;9.246;2022-08-03T05:21:25;5.80;;;5.10;;
55647;SDS011;45266;48.756;9.246;2022-08-03T05:22:47;6.00;;;4.93;;
55647;SDS011;45266;48.756;9.246;2022-08-03T05:23:49;6.35;;;4.53;;
55647;SDS011;45266;48.756;9.246;2022-08-03T05:24:51;5.55;;;5.05;;
55647;SDS011;45266;48.756;9.246;2022-08-03T05:25:52;5.30;;;4.75;;
55647;SDS011;45266;48.756;9.246;2022-08-03T05:26:54;7.53;;;5.00;;
55647;SDS011;45266;48.756;9.246;2022-08-03T05:27:56;7.05;;;5.82;;
55647;SDS011;45266;48.756;9.246;2022-08-03T05:28:58;5.93;;;5.40;;
55647;SDS011;45266;48.756;9.246;2022-08-03T05:29:59;6.10;;;5.18;;
55647;SDS011;45266;48.756;9.246;2022-08-03T05:31:22;6.05;;;5.45;;
55647;SDS011;45266;48.756;9.246;2022-08-03T05:32:23;7.72;;;5.65;;
55647;SDS011;45266;48.756;9.246;2022-08-03T05:33:25;6.70;;;5.53;;
55647;SDS011;45266;48.756;9.246;2022-08-03T05:34:27;6.60;;;5.95;;
55647;SDS011;45266;48.756;9.246;2022-08-03T05:35:29;6.75;;;5.47;;
55647;SDS011;45266;48.756;9.246;2022-08-03T05:36:51;6.13;;;5.53;;
55647;SDS011;45266;48.756;9.246;2022-08-03T05:37:53;6.28;;;5.47;;
55647;SDS011;45266;48.756;9.246;2022-08-03T05:38:55;8.65;;;5.22;;
55647;SDS011;45266;48.756;9.246;2022-08-03T05:40:03;6.45;;;5.30;;
55647;SDS011;45266;48.756;9.246;2022-08-03T05:41:05;6.75;;;5.07;;
55647;SDS011;45266;48.756;9.246;2022-08-03T05:42:24;6.28;;;5.53;;
55647;SDS011;45266;48.756;9.246;2022-08-03T05:43:25;7.88;;;5.43;;
55647;SDS011;45266;48.756;9.246;2022-08-03T05:44:27;6.25;;;4.88;;
55647;SDS011;45266;48.756;9.246;2022-08-03T05:45:30;7.18;;;4.63;;
55647;SDS011;45266;48.756;9.246;2022-08-03T05:46:32;6.25;;;5.20;;
55647;SDS011;45266;48.756;9.246;2022-08-03T05:47:34;5.50;;;4.80;;
55647;SDS011;45266;48.756;9.246;2022-08-03T05:48:36;6.05;;;5.45;;
55647;SDS011;45266;48.756;9.246;2022-08-03T05:49:38;7.03;;;4.80;;
55647;SDS011;45266;48.756;9.246;2022-08-03T05:50:40;6.85;;;4.95;;
55647;SDS011;45266;48.756;9.246;2022-08-03T05:51:43;5.93;;;5.13;;
55647;SDS011;45266;48.756;9.246;2022-08-03T05:52:45;6.07;;;4.70;;
55647;SDS011;45266;48.756;9.246;2022-08-03T05:53:47;6.70;;;5.20;;
55647;SDS011;45266;48.756;9.246;2022-08-03T05:54:49;6.00;;;4.50;;
55647;SDS011;45266;48.756;9.246;2022-08-03T05:55:57;5.63;;;4.97;;
55647;SDS011;45266;48.756;9.246;2022-08-03T05:57:14;6.88;;;4.45;;
55647;SDS011;45266;48.756;9.246;2022-08-03T05:58:16;5.22;;;4.40;;
55647;SDS011;45266;48.756;9.246;2022-08-03T05:59:18;5.30;;;4.72;;
55647;SDS011;45266;48.756;9.246;2022-08-03T06:00:38;5.50;;;5.00;;
55647;SDS011;45266;48.756;9.246;2022-08-03T06:01:40;5.45;;;4.57;;
55647;SDS011;45266;48.756;9.246;2022-08-03T06:02:42;6.05;;;4.68;;
55647;SDS011;45266;48.756;9.246;2022-08-03T06:03:44;5.15;;;4.50;;
55647;SDS011;45266;48.756;9.246;2022-08-03T06:04:46;8.10;;;5.05;;
55647;SDS011;45266;48.756;9.246;2022-08-03T06:05:48;5.25;;;4.63;;
55647;SDS011;45266;48.756;9.246;2022-08-03T06:07:00;5.35;;;4.90;;
55647;SDS011;45266;48.756;9.246;2022-08-03T06:08:02;6.80;;;4.90;;
55647;SDS011;45266;48.756;9.246;2022-08-03T06:09:04;8.40;;;4.88;;
55647;SDS011;45266;48.756;9.246;2022-08-03T06:10:06;5.30;;;4.65;;
55647;SDS011;45266;48.756;9.246;2022-08-03T06:11:29;4.68;;;4.28;;
55647;SDS011;45266;48.756;9.246;2022-08-03T06:12:30;7.47;;;4.78;;
55647;SDS011;45266;48.756;9.246;2022-08-03T06:13:36;5.38;;;4.75;;
55647;SDS011;45266;48.756;9.246;2022-08-03T06:14:38;5.45;;;4.95;;
55647;SDS011;45266;48.756;9.246;2022-08-03T06:15:40;7.07;;;5.00;;
55647;SDS011;45266;48.756;9.246;2022-08-03T06:16:42;5.38;;;4.47;;
55647;SDS011;45266;48.756;9.246;2022-08-03T06:17:47;7.40;;;4.35;;
55647;SDS011;45266;48.756;9.246;2022-08-03T06:18:50;7.38;;;4.75;;
55647;SDS011;45266;48.756;9.246;2022-08-03T06:19:52;5.68;;;4.63;;
55647;SDS011;45266;48.756;9.246;2022-08-03T06:20:54;8.27;;;4.80;;
55647;SDS011;45266;48.756;9.246;2022-08-03T06:21:56;7.70;;;4.47;;
55647;SDS011;45266;48.756;9.246;2022-08-03T06:22:59;5.88;;;4.65;;
55647;SDS011;45266;48.756;9.246;2022-08-03T06:24:02;7.47;;;5.00;;
55647;SDS011;45266;48.756;9.246;2022-08-03T06:25:06;7.68;;;4.78;;
55647;SDS011;45266;48.756;9.246;2022-08-03T06:26:13;5.43;;;4.90;;
55647;SDS011;45266;48.756;9.246;2022-08-03T06:27:15;5.68;;;5.05;;
55647;SDS011;45266;48.756;9.246;2022-08-03T06:28:17;5.32;;;4.82;;
55647;SDS011;45266;48.756;9.246;2022-08-03T06:29:38;6.10;;;5.05;;
55647;SDS011;45266;48.756;9.246;2022-08-03T06:30:40;6.93;;;4.72;;
55647;SDS011;45266;48.756;9.246;2022-08-03T06:31:42;5.35;;;4.85;;
55647;SDS011;45266;48.756;9.246;2022-08-03T06:32:44;5.45;;;4.82;;
55647;SDS011;45266;48.756;9.246;2022-08-03T06:33:52;5.90;;;4.88;;
55647;SDS011;45266;48.756;9.246;2022-08-03T06:35:14;13.95;;;5.20;;
55647;SDS011;45266;48.756;9.246;2022-08-03T06:36:16;6.28;;;5.00;;
55647;SDS011;45266;48.756;9.246;2022-08-03T06:37:18;5.45;;;4.35;;
55647;SDS011;45266;48.756;9.246;2022-08-03T06:38:19;5.93;;;5.00;;
55647;SDS011;45266;48.756;9.246;2022-08-03T06:39:22;5.40;;;4.57;;
55647;SDS011;45266;48.756;9.246;2022-08-03T06:40:24;6.68;;;4.60;;
55647;SDS011;45266;48.756;9.246;2022-08-03T06:41:30;5.38;;;4.88;;
55647;SDS011;45266;48.756;9.246;2022-08-03T06:42:38;4.75;;;4.25;;
55647;SDS011;45266;48.756;9.246;2022-08-03T06:43:40;6.40;;;4.63;;
55647;SDS011;45266;48.756;9.246;2022-08-03T06:45:02;6.22;;;4.35;;
55647;SDS011;45266;48.756;9.246;2022-08-03T06:46:04;4.93;;;4.38;;
55647;SDS011;45266;48.756;9.246;2022-08-03T06:47:06;6.10;;;4.75;;
55647;SDS011;45266;48.756;9.246;2022-08-03T06:48:09;6.50;;;4.75;;